createdAt,value
2018-11-26T00:00:52.336Z,5.09
2018-11-26T00:03:22.574Z,5.09
2018-11-26T00:05:52.597Z,5.12
2018-11-26T00:08:23.199Z,5.11
2018-11-26T00:12:01.671Z,5.10
2018-11-26T00:14:32.463Z,5.08
2018-11-26T00:17:03.436Z,5.08
2018-11-26T00:19:33.648Z,5.12
2018-11-26T00:22:06.727Z,5.11
2018-11-26T00:24:38.476Z,5.12
2018-11-26T00:27:10.471Z,5.12
2018-11-26T00:29:40.620Z,5.14
2018-11-26T00:32:11.309Z,5.16
2018-11-26T00:34:41.603Z,5.18
2018-11-26T00:37:12.067Z,5.19
2018-11-26T00:39:42.899Z,5.21
2018-11-26T00:42:12.888Z,5.23
2018-11-26T00:44:42.930Z,5.23
2018-11-26T00:47:13.499Z,5.24
2018-11-26T00:49:43.583Z,5.24
2018-11-26T00:52:13.885Z,5.24
2018-11-26T00:54:44.578Z,5.22
2018-11-26T00:57:14.743Z,5.21
2018-11-26T00:59:45.369Z,5.18
2018-11-26T01:02:16.120Z,5.17
2018-11-26T01:04:46.146Z,5.18
2018-11-26T01:07:16.639Z,5.15
2018-11-26T01:09:46.716Z,5.14
2018-11-26T01:12:17.386Z,5.13
2018-11-26T01:14:47.719Z,5.14
2018-11-26T01:17:18.163Z,5.14
2018-11-26T01:19:48.677Z,5.12
2018-11-26T01:22:19.065Z,5.12
2018-11-26T01:24:49.698Z,5.14
2018-11-26T01:27:19.710Z,5.14
2018-11-26T01:29:50.467Z,5.14
2018-11-26T01:32:21.007Z,5.15
2018-11-26T01:34:51.533Z,5.16
2018-11-26T01:37:22.074Z,5.14
2018-11-26T01:39:52.264Z,5.13
2018-11-26T01:42:22.851Z,5.13
2018-11-26T01:44:53.181Z,5.13
2018-11-26T01:47:23.452Z,5.13
2018-11-26T01:49:53.771Z,5.13
2018-11-26T01:52:24.094Z,5.15
2018-11-26T01:54:54.426Z,5.14
2018-11-26T01:57:24.791Z,5.16
2018-11-26T01:59:55.073Z,5.15
2018-11-26T02:02:25.377Z,5.18
2018-11-26T02:04:55.762Z,5.20
2018-11-26T02:07:26.107Z,5.20
2018-11-26T02:09:56.285Z,5.21
2018-11-26T02:12:26.699Z,5.20
2018-11-26T02:14:57.292Z,5.23
2018-11-26T02:17:27.335Z,5.25
2018-11-26T02:19:57.773Z,5.25
2018-11-26T02:22:28.365Z,5.26
2018-11-26T02:24:58.434Z,5.26
2018-11-26T02:27:28.855Z,5.25
2018-11-26T02:30:00.013Z,5.25
2018-11-26T02:32:32.104Z,5.26
2018-11-26T02:35:03.475Z,5.27
2018-11-26T02:37:36.182Z,5.25
2018-11-26T02:40:08.263Z,5.26
2018-11-26T02:42:42.969Z,5.28
2018-11-26T02:45:16.771Z,5.27
2018-11-26T02:47:46.766Z,5.27
2018-11-26T02:50:16.874Z,5.29
2018-11-26T02:52:47.335Z,5.29
2018-11-26T02:55:17.679Z,5.31
2018-11-26T02:57:48.018Z,5.24
2018-11-26T03:00:21.111Z,5.26
2018-11-26T03:02:51.290Z,5.26
2018-11-26T03:05:30.589Z,5.27
2018-11-26T03:08:01.302Z,5.29
2018-11-26T03:10:33.704Z,5.31
2018-11-26T03:13:05.450Z,5.31
2018-11-26T03:15:35.606Z,5.33
2018-11-26T03:18:07.035Z,5.34
2018-11-26T03:20:39.339Z,5.34
2018-11-26T03:23:10.506Z,5.35
2018-11-26T03:25:40.545Z,5.35
2018-11-26T03:28:13.482Z,5.35
2018-11-26T03:30:44.355Z,5.33
2018-11-26T03:33:14.437Z,5.33
2018-11-26T03:35:44.426Z,5.31
2018-11-26T03:38:16.622Z,5.32
2018-11-26T03:40:48.382Z,5.33
2018-11-26T03:43:20.348Z,5.33
2018-11-26T03:45:52.307Z,5.34
2018-11-26T03:48:23.731Z,5.36
2018-11-26T03:50:56.304Z,5.36
2018-11-26T03:53:26.459Z,5.37
2018-11-26T03:55:57.397Z,5.35
2018-11-26T03:58:27.953Z,5.33
2018-11-26T04:00:58.454Z,5.33
2018-11-26T04:03:28.756Z,5.33
2018-11-26T04:05:59.059Z,5.32
2018-11-26T04:08:29.363Z,5.35
2018-11-26T04:10:59.683Z,5.35
2018-11-26T04:13:30.018Z,5.35
2018-11-26T04:16:00.356Z,5.35
2018-11-26T04:18:30.466Z,5.36
2018-11-26T04:21:00.535Z,5.36
2018-11-26T04:23:31.346Z,5.38
2018-11-26T04:26:01.534Z,5.38
2018-11-26T04:28:31.762Z,5.38
2018-11-26T04:31:02.269Z,5.38
2018-11-26T04:33:32.670Z,5.36
2018-11-26T04:36:03.262Z,5.38
2018-11-26T04:38:33.528Z,5.38
2018-11-26T04:41:03.780Z,5.36
2018-11-26T04:43:34.295Z,5.36
2018-11-26T04:46:04.616Z,5.38
2018-11-26T04:48:34.656Z,5.37
2018-11-26T04:51:08.798Z,5.36
2018-11-26T04:53:41.823Z,5.37
2018-11-26T04:56:14.828Z,5.37
2018-11-26T04:58:46.592Z,5.35
2018-11-26T05:01:17.846Z,5.38
2018-11-26T05:03:48.781Z,5.38
2018-11-26T05:06:20.834Z,5.37
2018-11-26T05:08:52.784Z,5.38
2018-11-26T05:11:23.212Z,5.36
2018-11-26T05:13:53.538Z,5.39
2018-11-26T05:16:23.910Z,5.39
2018-11-26T05:18:54.295Z,5.38
2018-11-26T05:21:24.603Z,5.39
2018-11-26T05:23:54.843Z,5.39
2018-11-26T05:26:25.475Z,5.39
2018-11-26T05:28:55.754Z,5.39
2018-11-26T05:31:26.169Z,5.38
2018-11-26T05:33:57.843Z,5.38
2018-11-26T05:36:29.934Z,5.39
2018-11-26T05:38:59.947Z,5.38
2018-11-26T05:41:29.971Z,5.36
2018-11-26T05:44:04.557Z,5.35
2018-11-26T05:46:40.816Z,5.37
2018-11-26T05:49:13.834Z,5.35
2018-11-26T05:51:44.397Z,5.36
2018-11-26T05:54:14.554Z,5.36
2018-11-26T05:56:45.146Z,5.34
2018-11-26T05:59:15.702Z,5.35
2018-11-26T06:01:46.166Z,5.35
2018-11-26T06:04:17.527Z,5.35
2018-11-26T06:06:50.107Z,5.33
2018-11-26T06:09:20.171Z,5.35
2018-11-26T06:11:51.297Z,5.34
2018-11-26T06:14:24.105Z,5.36
2018-11-26T06:16:55.111Z,5.37
2018-11-26T06:19:28.109Z,5.37
2018-11-26T06:21:59.039Z,5.37
2018-11-26T06:24:29.094Z,5.39
2018-11-26T06:26:59.234Z,5.38
2018-11-26T06:29:35.706Z,5.38
2018-11-26T06:32:06.237Z,5.40
2018-11-26T06:34:38.600Z,5.39
2018-11-26T06:37:06.990Z,5.41
2018-11-26T06:39:37.029Z,5.42
2018-11-26T06:42:07.217Z,5.40
2018-11-26T06:44:38.073Z,5.39
2018-11-26T06:47:08.718Z,5.40
2018-11-26T06:49:38.714Z,5.39
2018-11-26T06:52:08.985Z,5.39
2018-11-26T06:54:39.342Z,5.37
2018-11-26T06:57:09.899Z,5.38
2018-11-26T06:59:39.908Z,5.40
2018-11-26T07:02:10.169Z,5.43
2018-11-26T07:04:40.213Z,5.42
2018-11-26T07:07:10.690Z,5.42
2018-11-26T07:09:41.149Z,5.39
2018-11-26T07:12:11.463Z,5.39
2018-11-26T07:14:41.773Z,5.36
2018-11-26T07:17:12.045Z,5.34
2018-11-26T07:19:42.469Z,5.36
2018-11-26T07:22:12.908Z,5.36
2018-11-26T07:24:43.190Z,5.35
2018-11-26T07:27:13.433Z,5.31
2018-11-26T07:29:43.949Z,5.28
2018-11-26T07:32:14.402Z,5.24
2018-11-26T07:34:44.594Z,5.26
2018-11-26T07:37:14.752Z,5.23
2018-11-26T07:39:45.328Z,5.22
2018-11-26T07:42:15.714Z,5.20
2018-11-26T07:44:46.002Z,5.17
2018-11-26T07:47:16.332Z,5.18
2018-11-26T07:49:46.638Z,5.16
2018-11-26T07:52:17.088Z,5.14
2018-11-26T07:54:47.391Z,5.12
2018-11-26T07:57:17.443Z,5.13
2018-11-26T07:59:48.165Z,5.15
2018-11-26T08:02:18.538Z,5.10
2018-11-26T08:04:48.551Z,5.08
2018-11-26T08:07:19.481Z,5.06
2018-11-26T08:09:50.047Z,5.07
2018-11-26T08:12:20.109Z,5.06
2018-11-26T08:14:50.484Z,5.04
2018-11-26T08:17:20.551Z,5.10
2018-11-26T08:19:50.786Z,5.16
2018-11-26T08:22:21.574Z,5.07
2018-11-26T08:24:51.795Z,5.04
2018-11-26T08:27:23.764Z,5.01
2018-11-26T08:29:58.610Z,4.97
2018-11-26T08:32:34.037Z,5.03
2018-11-26T08:34:59.774Z,5.00
2018-11-26T08:37:33.543Z,5.01
2018-11-26T08:40:09.183Z,5.00
2018-11-26T08:42:45.875Z,5.04
2018-11-26T08:45:21.138Z,5.04
2018-11-26T08:48:05.207Z,5.10
2018-11-26T08:50:37.031Z,5.08
2018-11-26T08:53:08.983Z,5.03
2018-11-26T08:55:39.795Z,5.01
2018-11-26T08:58:11.868Z,5.02
2018-11-26T09:00:43.566Z,5.04
2018-11-26T09:03:19.227Z,5.01
2018-11-26T09:06:00.132Z,4.98
2018-11-26T09:08:31.482Z,4.98
2018-11-26T09:11:03.830Z,5.00
2018-11-26T09:13:34.586Z,5.03
2018-11-26T09:16:07.576Z,5.01
2018-11-26T09:18:39.978Z,4.97
2018-11-26T09:21:12.374Z,4.97
2018-11-26T09:23:44.031Z,4.96
2018-11-26T09:26:14.551Z,4.92
2018-11-26T09:30:43.788Z,5.01
2018-11-26T09:33:14.058Z,5.01
2018-11-26T09:35:44.196Z,4.99
2018-11-26T09:38:14.586Z,4.96
2018-11-26T09:40:47.106Z,4.88
2018-11-26T09:43:20.815Z,5.01
2018-11-26T09:45:51.168Z,5.44
2018-11-26T09:48:22.007Z,5.15
2018-11-26T09:50:52.030Z,4.95
2018-11-26T09:53:22.693Z,4.89
2018-11-26T09:56:17.037Z,4.80
2018-11-26T09:59:16.621Z,4.35
2018-11-26T10:01:48.125Z,4.57
2018-11-26T10:04:21.131Z,4.48
2018-11-26T10:06:54.970Z,4.42
2018-11-26T10:09:25.662Z,4.33
2018-11-26T10:11:56.095Z,4.36
2018-11-26T10:14:27.332Z,4.31
2018-11-26T10:17:00.067Z,4.30
2018-11-26T10:19:30.261Z,4.26
2018-11-26T10:22:07.146Z,4.33
2018-11-26T10:24:37.306Z,4.32
2018-11-26T10:27:08.453Z,4.28
2018-11-26T10:29:41.120Z,4.25
2018-11-26T10:32:14.521Z,4.19
2018-11-26T10:34:45.410Z,4.18
2018-11-26T10:37:15.431Z,4.18
2018-11-26T10:39:46.275Z,4.09
2018-11-26T10:42:17.053Z,4.00
2018-11-26T10:44:47.179Z,3.97
2018-11-26T10:47:17.625Z,3.92
2018-11-26T10:49:48.223Z,3.89
2018-11-26T10:52:18.306Z,3.83
2018-11-26T10:54:52.209Z,3.74
2018-11-26T10:57:22.308Z,3.74
2018-11-26T10:59:53.241Z,3.65
2018-11-26T11:02:29.998Z,3.64
2018-11-26T11:05:00.665Z,3.66
2018-11-26T11:07:33.491Z,3.62
2018-11-26T11:10:13.883Z,3.58
2018-11-26T11:12:46.486Z,3.57
2018-11-26T11:15:18.763Z,3.55
2018-11-26T11:17:50.994Z,3.53
2018-11-26T11:20:28.494Z,3.53
2018-11-26T11:23:00.735Z,3.52
2018-11-26T11:25:31.526Z,3.52
2018-11-26T11:28:01.571Z,3.53
2018-11-26T11:30:31.583Z,3.51
2018-11-26T11:35:33.245Z,3.55
2018-11-26T11:38:03.572Z,3.54
2018-11-26T11:40:34.497Z,3.50
2018-11-26T11:43:04.890Z,3.46
2018-11-26T11:45:38.107Z,3.42
2018-11-26T11:48:08.771Z,3.38
2018-11-26T11:50:48.795Z,3.34
2018-11-26T11:53:39.956Z,3.33
2018-11-26T11:56:10.656Z,3.28
2018-11-26T11:58:40.688Z,3.27
2018-11-26T12:01:11.667Z,3.27
2018-11-26T12:03:44.325Z,3.27
2018-11-26T12:06:15.510Z,3.27
2018-11-26T12:08:46.588Z,3.20
2018-11-26T12:11:18.681Z,3.12
2018-11-26T12:13:50.785Z,3.11
2018-11-26T12:16:21.440Z,3.12
2018-11-26T12:18:51.687Z,3.09
2018-11-26T12:21:21.666Z,3.02
2018-11-26T12:23:52.758Z,2.99
2018-11-26T12:26:23.659Z,2.95
2018-11-26T12:28:57.156Z,2.92
2018-11-26T12:31:27.777Z,2.90
2018-11-26T12:33:58.844Z,2.90
2018-11-26T12:36:28.826Z,2.93
2018-11-26T12:38:59.772Z,2.87
2018-11-26T12:41:29.767Z,2.85
2018-11-26T12:44:00.834Z,2.82
2018-11-26T12:46:31.857Z,2.76
2018-11-26T12:49:01.878Z,2.76
2018-11-26T12:51:32.831Z,2.74
2018-11-26T12:54:02.944Z,2.73
2018-11-26T12:56:33.975Z,2.73
2018-11-26T12:59:03.995Z,2.70
2018-11-26T13:01:34.836Z,2.65
2018-11-26T13:04:05.871Z,2.63
2018-11-26T13:06:39.760Z,2.58
2018-11-26T13:09:10.107Z,2.56
2018-11-26T13:11:40.937Z,2.55
2018-11-26T13:14:12.078Z,2.51
2018-11-26T13:16:42.077Z,2.51
2018-11-26T13:19:12.961Z,2.48
2018-11-26T13:21:42.993Z,2.53
2018-11-26T13:24:14.026Z,2.50
2018-11-26T13:26:44.094Z,2.50
2018-11-26T13:29:14.851Z,2.48
2018-11-26T13:31:45.164Z,2.50
2018-11-26T13:34:15.277Z,2.49
2018-11-26T13:36:49.074Z,2.47
2018-11-26T13:39:21.131Z,2.45
2018-11-26T13:41:53.095Z,2.49
2018-11-26T13:44:24.000Z,2.37
2018-11-26T13:46:54.239Z,2.37
2018-11-26T13:49:24.266Z,2.39
2018-11-26T13:51:59.521Z,2.42
2018-11-26T13:54:30.381Z,2.41
2018-11-26T13:57:00.944Z,2.41
2018-11-26T13:59:31.801Z,2.49
2018-11-26T14:02:02.081Z,2.38
2018-11-26T14:04:32.158Z,2.38
2018-11-26T14:07:07.189Z,2.34
2018-11-26T14:09:40.188Z,2.31
2018-11-26T14:12:11.132Z,2.29
2018-11-26T14:14:41.214Z,2.29
2018-11-26T14:17:12.434Z,2.28
2018-11-26T14:19:43.554Z,2.29
2018-11-26T14:22:13.611Z,2.32
2018-11-26T14:24:44.231Z,2.26
2018-11-26T14:27:15.076Z,2.28
2018-11-26T14:29:46.313Z,2.25
2018-11-26T14:32:18.288Z,2.24
2018-11-26T14:34:50.383Z,2.22
2018-11-26T14:37:21.199Z,2.17
2018-11-26T14:39:53.260Z,2.14
2018-11-26T14:42:24.682Z,2.15
2018-11-26T14:44:59.678Z,2.14
2018-11-26T14:47:31.403Z,2.15
2018-11-26T14:50:02.438Z,2.14
2018-11-26T14:52:35.437Z,2.15
2018-11-26T14:55:09.241Z,2.12
2018-11-26T14:57:39.412Z,2.14
2018-11-26T15:00:16.078Z,2.14
2018-11-26T15:02:47.050Z,2.10
2018-11-26T15:05:18.441Z,2.09
2018-11-26T15:07:48.823Z,2.05
2018-11-26T15:10:21.924Z,2.05
2018-11-26T15:12:53.573Z,2.04
2018-11-26T15:15:25.960Z,2.03
2018-11-26T15:17:57.640Z,2.00
2018-11-26T15:20:29.591Z,2.03
2018-11-26T15:23:07.697Z,2.03
2018-11-26T15:25:41.487Z,2.03
2018-11-26T15:28:13.737Z,2.04
2018-11-26T15:30:51.520Z,2.05
2018-11-26T15:33:21.551Z,2.03
2018-11-26T15:35:53.592Z,2.02
2018-11-26T15:38:24.629Z,2.01
2018-11-26T15:40:56.603Z,2.00
2018-11-26T15:43:27.512Z,2.02
2018-11-26T15:45:59.653Z,1.98
2018-11-26T15:48:30.683Z,1.96
2018-11-26T15:51:01.265Z,1.98
2018-11-26T15:53:31.773Z,1.93
2018-11-26T15:56:01.842Z,1.89
2018-11-26T15:58:32.828Z,1.90
2018-11-26T16:01:03.520Z,1.91
2018-11-26T16:03:33.673Z,1.91
2018-11-26T16:06:04.608Z,1.89
2018-11-26T16:08:35.280Z,1.65
2018-11-26T16:11:06.109Z,1.96
2018-11-26T16:13:36.391Z,1.96
2018-11-26T16:16:07.390Z,1.95
2018-11-26T16:18:37.911Z,1.93
2018-11-26T16:21:08.647Z,1.95
2018-11-26T16:23:38.777Z,1.94
2018-11-26T16:26:09.660Z,2.01
2018-11-26T16:28:39.887Z,1.97
2018-11-26T16:31:10.895Z,1.98
2018-11-26T16:33:41.798Z,1.98
2018-11-26T16:36:11.980Z,1.99
2018-11-26T16:38:42.891Z,2.00
2018-11-26T16:41:13.973Z,2.05
2018-11-26T16:43:44.830Z,2.03
2018-11-26T16:46:15.187Z,2.02
2018-11-26T16:48:46.600Z,1.99
2018-11-26T16:51:16.652Z,2.00
2018-11-26T16:53:48.539Z,2.03
2018-11-26T16:56:18.596Z,2.03
2018-11-26T16:58:48.765Z,2.02
2018-11-26T17:01:18.879Z,2.02
2018-11-26T17:03:49.793Z,2.00
2018-11-26T17:06:20.315Z,1.96
2018-11-26T17:08:50.743Z,2.00
2018-11-26T17:11:21.349Z,1.97
2018-11-26T17:13:51.846Z,1.98
2018-11-26T17:16:22.261Z,2.00
2018-11-26T17:18:53.071Z,2.00
2018-11-26T17:21:24.123Z,2.00
2018-11-26T17:23:54.599Z,2.01
2018-11-26T17:26:25.087Z,2.03
2018-11-26T17:28:55.236Z,1.98
2018-11-26T17:31:26.368Z,1.98
2018-11-26T17:33:57.006Z,2.02
2018-11-26T17:36:27.617Z,2.04
2018-11-26T17:38:58.082Z,2.08
2018-11-26T17:41:28.410Z,2.08
2018-11-26T17:43:59.281Z,1.98
2018-11-26T17:46:33.150Z,2.00
2018-11-26T17:49:06.112Z,2.02
2018-11-26T17:51:38.457Z,2.04
2018-11-26T17:54:15.214Z,2.06
2018-11-26T17:56:45.445Z,2.04
2018-11-26T17:59:15.658Z,2.04
2018-11-26T18:01:47.820Z,2.05
2018-11-26T18:04:18.303Z,2.06
2018-11-26T18:06:50.701Z,2.13
2018-11-26T18:09:22.862Z,2.09
2018-11-26T18:11:51.403Z,2.07
2018-11-26T18:14:22.008Z,2.02
2018-11-26T18:16:52.327Z,2.01
2018-11-26T18:19:23.088Z,2.08
2018-11-26T18:21:53.483Z,2.08
2018-11-26T18:24:24.164Z,2.10
2018-11-26T18:26:54.656Z,2.05
2018-11-26T18:29:25.160Z,2.03
2018-11-26T18:31:55.514Z,2.03
2018-11-26T18:34:26.249Z,2.03
2018-11-26T18:36:56.366Z,2.01
2018-11-26T18:39:27.400Z,1.97
2018-11-26T18:41:57.452Z,1.96
2018-11-26T18:44:28.745Z,1.95
2018-11-26T18:46:59.292Z,2.00
2018-11-26T18:49:29.996Z,1.98
2018-11-26T18:52:00.561Z,1.98
2018-11-26T18:54:31.218Z,2.00
2018-11-26T18:57:01.907Z,1.96
2018-11-26T18:59:32.919Z,1.95
2018-11-26T19:02:06.492Z,1.93
2018-11-26T19:04:36.658Z,1.93
2018-11-26T19:07:07.886Z,1.94
2018-11-26T19:09:38.704Z,1.93
2018-11-26T19:12:09.686Z,1.95
2018-11-26T19:14:42.561Z,2.08
2018-11-26T19:17:13.584Z,2.00
2018-11-26T19:19:44.663Z,2.00
2018-11-26T19:22:14.815Z,2.01
2018-11-26T19:24:45.821Z,2.02
2018-11-26T19:27:15.958Z,2.02
2018-11-26T19:29:46.706Z,1.95
2018-11-26T19:32:18.675Z,2.13
2018-11-26T19:34:49.636Z,1.95
2018-11-26T19:37:21.608Z,1.94
2018-11-26T19:39:51.903Z,1.88
2018-11-26T19:42:23.637Z,1.84
2018-11-26T19:44:54.718Z,1.95
2018-11-26T19:47:28.427Z,1.87
2018-11-26T19:50:02.363Z,1.91
2018-11-26T19:52:29.956Z,1.84
2018-11-26T19:55:00.505Z,1.86
2018-11-26T19:57:30.721Z,1.83
2018-11-26T20:00:00.960Z,1.86
2018-11-26T20:02:31.069Z,1.83
2018-11-26T20:05:03.046Z,1.81
2018-11-26T20:07:33.660Z,1.80
2018-11-26T20:10:03.957Z,1.80
2018-11-26T20:12:34.844Z,1.81
2018-11-26T20:15:08.594Z,1.82
2018-11-26T20:17:38.964Z,1.87
2018-11-26T20:20:10.262Z,1.83
2018-11-26T20:22:40.974Z,1.84
2018-11-26T20:25:15.079Z,1.81
2018-11-26T20:27:45.346Z,1.81
2018-11-26T20:30:16.020Z,1.83
2018-11-26T20:32:48.025Z,1.81
2018-11-26T20:35:24.939Z,1.82
2018-11-26T20:38:01.869Z,1.80
2018-11-26T20:40:33.553Z,1.81
2018-11-26T20:43:04.104Z,1.84
2018-11-26T20:45:37.761Z,1.77
2018-11-26T20:48:10.734Z,1.83
2018-11-26T20:50:47.033Z,1.84
2018-11-26T20:53:20.719Z,1.80
2018-11-26T20:55:51.053Z,1.85
2018-11-26T20:58:22.187Z,1.84
2018-11-26T21:01:01.071Z,1.84
2018-11-26T21:03:31.858Z,1.84
2018-11-26T21:06:02.210Z,1.88
2018-11-26T21:08:32.915Z,1.87
2018-11-26T21:11:03.149Z,1.84
2018-11-26T21:13:37.080Z,1.83
2018-11-26T21:16:07.494Z,1.80
2018-11-26T21:18:38.237Z,1.90
2018-11-26T21:21:11.751Z,1.87
2018-11-26T21:23:42.297Z,1.84
2018-11-26T21:26:12.485Z,1.86
2018-11-26T21:28:43.256Z,1.82
2018-11-26T21:31:14.307Z,1.80
2018-11-26T21:33:45.382Z,1.78
2018-11-26T21:36:15.815Z,1.77
2018-11-26T21:38:46.281Z,1.76
2018-11-26T21:41:16.408Z,1.76
2018-11-26T21:43:47.409Z,1.79
2018-11-26T21:46:22.358Z,1.78
2018-11-26T21:48:54.352Z,1.81
2018-11-26T21:51:25.401Z,1.82
2018-11-26T21:53:56.324Z,1.83
2018-11-26T21:56:28.296Z,1.85
2018-11-26T21:59:00.457Z,1.81
2018-11-26T22:01:31.470Z,1.82
2018-11-26T22:04:01.580Z,1.88
2018-11-26T22:06:32.383Z,1.84
2018-11-26T22:09:02.543Z,1.82
2018-11-26T22:11:33.389Z,1.83
2018-11-26T22:14:04.235Z,1.82
2018-11-26T22:16:34.413Z,1.85
2018-11-26T22:19:08.516Z,1.96
2018-11-26T22:21:41.463Z,1.88
2018-11-26T22:24:12.526Z,1.87
2018-11-26T22:26:43.516Z,1.85
2018-11-26T22:29:15.785Z,1.87
2018-11-26T22:31:47.568Z,1.87
2018-11-26T22:34:17.643Z,1.86
2018-11-26T22:36:48.519Z,1.86
2018-11-26T22:39:19.564Z,1.87
2018-11-26T22:41:56.024Z,1.82
2018-11-26T22:44:26.768Z,1.87
2018-11-26T22:46:57.559Z,1.84
2018-11-26T22:49:28.356Z,1.86
2018-11-26T22:51:58.647Z,1.89
2018-11-26T22:54:28.668Z,1.86
2018-11-26T22:57:06.656Z,1.89
2018-11-26T22:59:37.636Z,1.86
2018-11-26T23:02:14.546Z,1.90
2018-11-26T23:04:45.599Z,1.90
2018-11-26T23:07:15.744Z,1.90
2018-11-26T23:09:46.572Z,1.90
2018-11-26T23:12:16.596Z,1.87
2018-11-26T23:14:47.731Z,1.86
2018-11-26T23:17:19.684Z,1.82
2018-11-26T23:19:51.872Z,1.85
2018-11-26T23:22:22.077Z,1.84
2018-11-26T23:24:52.615Z,1.84
2018-11-26T23:27:23.378Z,1.91
2018-11-26T23:29:53.961Z,1.84
2018-11-26T23:32:24.869Z,1.87
2018-11-26T23:34:55.219Z,1.88
2018-11-26T23:37:25.785Z,1.91
2018-11-26T23:39:56.259Z,1.87
2018-11-26T23:42:27.112Z,1.86
2018-11-26T23:44:57.753Z,1.90
2018-11-26T23:47:31.647Z,1.95
2018-11-26T23:50:01.706Z,1.93
2018-11-26T23:52:35.708Z,1.90
2018-11-26T23:55:09.424Z,1.86
2018-11-26T23:57:40.785Z,1.87
